createdAt,value
2022-11-03T00:02:11.610Z,7.50
2022-11-03T00:04:38.746Z,7.60
2022-11-03T00:07:05.793Z,7.50
2022-11-03T00:09:33.130Z,7.50
2022-11-03T00:12:02.001Z,7.30
2022-11-03T00:14:29.128Z,7.20
2022-11-03T00:16:56.313Z,7.30
2022-11-03T00:19:23.382Z,7.10
2022-11-03T00:21:50.590Z,7.60
2022-11-03T00:24:17.941Z,7.30
2022-11-03T00:26:44.993Z,7.20
2022-11-03T00:29:14.623Z,7.20
2022-11-03T00:31:45.185Z,7.10
2022-11-03T00:34:12.949Z,7.10
2022-11-03T00:36:45.080Z,7.10
2022-11-03T00:39:13.463Z,7.00
2022-11-03T00:41:41.149Z,6.80
2022-11-03T00:44:10.738Z,7.00
2022-11-03T00:46:38.404Z,6.90
2022-11-03T00:49:06.308Z,7.00
2022-11-03T00:51:37.202Z,7.00
2022-11-03T00:54:07.410Z,7.00
2022-11-03T00:56:41.189Z,6.80
2022-11-03T00:59:10.361Z,6.60
2022-11-03T01:01:47.186Z,6.80
2022-11-03T01:04:35.743Z,6.90
2022-11-03T01:07:05.341Z,6.60
2022-11-03T01:09:35.039Z,6.70
2022-11-03T01:12:19.504Z,6.60
2022-11-03T01:14:53.538Z,6.20
2022-11-03T01:17:28.987Z,6.70
2022-11-03T01:19:56.211Z,6.50
2022-11-03T01:22:24.675Z,6.80
2022-11-03T01:24:52.206Z,6.60
2022-11-03T01:27:22.568Z,6.30
2022-11-03T01:29:49.936Z,6.30
2022-11-03T01:32:17.121Z,6.40
2022-11-03T01:34:44.269Z,6.30
2022-11-03T01:37:11.346Z,6.20
2022-11-03T01:39:38.704Z,6.30
2022-11-03T01:42:06.196Z,6.50
2022-11-03T01:44:42.646Z,6.50
2022-11-03T01:47:13.168Z,6.20
2022-11-03T01:50:00.874Z,6.20
2022-11-03T01:52:41.475Z,6.50
2022-11-03T01:55:19.452Z,6.20
2022-11-03T01:58:19.253Z,6.00
2022-11-03T02:00:52.917Z,6.10
2022-11-03T02:03:23.170Z,6.20
2022-11-03T02:05:52.825Z,6.40
2022-11-03T02:08:31.402Z,6.00
2022-11-03T02:10:59.016Z,6.10
2022-11-03T02:13:28.113Z,6.10
2022-11-03T02:15:59.503Z,6.10
2022-11-03T02:18:32.018Z,6.10
2022-11-03T02:21:26.604Z,6.10
2022-11-03T02:24:15.989Z,5.90
2022-11-03T02:26:48.643Z,6.10
2022-11-03T02:29:16.123Z,5.70
2022-11-03T02:31:50.860Z,5.80
2022-11-03T02:34:33.922Z,6.00
2022-11-03T02:37:12.351Z,5.60
2022-11-03T02:39:50.832Z,5.50
2022-11-03T02:42:21.321Z,5.50
2022-11-03T02:44:49.509Z,5.30
2022-11-03T02:47:19.021Z,5.70
2022-11-03T02:52:41.368Z,5.30
2022-11-03T02:55:37.815Z,5.30
2022-11-03T02:58:26.043Z,5.50
2022-11-03T03:01:25.731Z,5.30
2022-11-03T03:03:59.855Z,5.70
2022-11-03T03:06:53.750Z,5.70
2022-11-03T03:09:38.404Z,5.50
2022-11-03T03:12:10.664Z,5.60
2022-11-03T03:14:42.240Z,5.50
2022-11-03T03:17:23.782Z,5.80
2022-11-03T03:20:14.782Z,5.30
2022-11-03T03:23:04.140Z,5.70
2022-11-03T03:25:50.674Z,5.70
2022-11-03T03:28:47.971Z,5.60
2022-11-03T03:31:18.442Z,5.70
2022-11-03T03:33:49.015Z,5.80
2022-11-03T03:36:21.200Z,5.40
2022-11-03T03:39:01.112Z,5.70
2022-11-03T03:41:32.830Z,5.30
2022-11-03T03:44:05.776Z,5.60
2022-11-03T03:46:39.375Z,5.40
2022-11-03T03:49:07.643Z,5.30
2022-11-03T03:51:35.589Z,5.30
2022-11-03T03:54:02.824Z,5.60
2022-11-03T03:56:57.491Z,5.60
2022-11-03T03:59:24.663Z,5.40
2022-11-03T04:01:52.015Z,5.40
2022-11-03T04:04:19.415Z,5.40
2022-11-03T04:06:46.851Z,5.60
2022-11-03T04:09:14.272Z,5.20
2022-11-03T04:11:59.768Z,5.00
2022-11-03T04:14:45.185Z,5.40
2022-11-03T04:17:39.475Z,5.30
2022-11-03T04:20:32.150Z,5.00
2022-11-03T04:22:59.197Z,5.10
2022-11-03T04:25:26.391Z,4.80
2022-11-03T04:27:53.522Z,5.00
2022-11-03T04:30:25.056Z,4.90
2022-11-03T04:32:53.529Z,5.00
2022-11-03T04:35:28.842Z,4.60
2022-11-03T04:38:09.799Z,4.80
2022-11-03T04:40:37.053Z,4.70
2022-11-03T04:43:11.333Z,4.50
2022-11-03T04:45:38.499Z,4.60
2022-11-03T04:48:21.264Z,4.60
2022-11-03T04:50:54.099Z,4.60
2022-11-03T04:53:23.459Z,4.60
2022-11-03T04:55:53.680Z,4.50
2022-11-03T04:58:26.991Z,4.60
2022-11-03T05:00:57.552Z,4.60
2022-11-03T05:03:33.587Z,4.60
2022-11-03T05:06:12.490Z,4.60
2022-11-03T05:08:40.322Z,4.60
2022-11-03T05:11:42.988Z,4.50
2022-11-03T05:14:27.680Z,4.50
2022-11-03T05:16:56.501Z,4.60
2022-11-03T05:19:35.237Z,4.50
2022-11-03T05:22:05.562Z,4.40
2022-11-03T05:24:35.865Z,4.40
2022-11-03T05:27:03.111Z,4.60
2022-11-03T05:29:37.528Z,4.40
2022-11-03T05:32:19.957Z,4.40
2022-11-03T05:34:56.102Z,4.40
2022-11-03T05:37:31.979Z,4.30
2022-11-03T05:40:12.591Z,4.40
2022-11-03T05:42:42.759Z,4.20
2022-11-03T05:45:24.491Z,4.30
2022-11-03T05:47:55.969Z,4.30
2022-11-03T05:50:29.360Z,4.10
2022-11-03T05:53:18.609Z,4.20
2022-11-03T05:55:45.681Z,4.30
2022-11-03T05:58:43.277Z,4.20
2022-11-03T06:01:34.817Z,4.20
2022-11-03T06:04:14.967Z,4.10
2022-11-03T06:06:42.504Z,4.20
2022-11-03T06:09:19.506Z,4.40
2022-11-03T06:11:47.893Z,4.50
2022-11-03T06:14:26.395Z,4.50
2022-11-03T06:17:00.711Z,4.70
2022-11-03T06:19:48.004Z,4.70
2022-11-03T06:22:28.018Z,5.30
2022-11-03T06:25:11.654Z,5.40
2022-11-03T06:27:39.443Z,5.80
2022-11-03T06:30:30.018Z,6.20
2022-11-03T06:33:02.550Z,6.20
2022-11-03T06:35:30.166Z,6.40
2022-11-03T06:37:58.351Z,6.20
2022-11-03T06:40:37.607Z,6.40
2022-11-03T06:43:27.672Z,6.70
2022-11-03T06:46:01.300Z,6.70
2022-11-03T06:48:33.250Z,6.40
2022-11-03T06:51:01.497Z,6.60
2022-11-03T06:53:33.864Z,6.50
2022-11-03T06:56:01.032Z,6.30
2022-11-03T06:58:34.979Z,6.20
2022-11-03T07:01:30.260Z,6.30
2022-11-03T07:04:03.251Z,6.30
2022-11-03T07:06:36.341Z,6.30
2022-11-03T07:09:09.813Z,6.90
2022-11-03T07:11:59.153Z,6.60
2022-11-03T07:14:33.255Z,7.00
2022-11-03T07:17:05.561Z,7.20
2022-11-03T07:19:45.121Z,7.10
2022-11-03T07:22:21.998Z,7.80
2022-11-03T07:24:55.383Z,8.10
2022-11-03T07:27:38.675Z,8.00
2022-11-03T07:30:18.466Z,8.50
2022-11-03T07:32:48.428Z,8.10
2022-11-03T07:35:18.628Z,8.50
2022-11-03T07:37:47.790Z,8.80
2022-11-03T07:40:22.228Z,8.70
2022-11-03T07:42:50.881Z,8.90
2022-11-03T07:45:46.176Z,9.10
2022-11-03T07:48:37.638Z,9.80
2022-11-03T07:51:30.711Z,9.90
2022-11-03T07:54:21.632Z,10.40
2022-11-03T07:57:19.386Z,10.80
2022-11-03T07:59:51.669Z,11.30
2022-11-03T08:02:36.364Z,12.00
2022-11-03T08:05:04.902Z,12.20
2022-11-03T08:07:32.873Z,12.90
2022-11-03T08:10:00.498Z,13.10
2022-11-03T08:12:27.824Z,13.30
2022-11-03T08:14:54.860Z,14.10
2022-11-03T08:17:23.317Z,14.30
2022-11-03T08:19:50.542Z,14.90
2022-11-03T08:22:17.539Z,15.10
2022-11-03T08:24:44.709Z,15.70
2022-11-03T08:27:11.713Z,15.40
2022-11-03T08:29:38.936Z,16.10
2022-11-03T08:32:06.057Z,16.30
2022-11-03T08:34:33.131Z,16.80
2022-11-03T08:37:00.198Z,17.10
2022-11-03T08:39:27.214Z,17.50
2022-11-03T08:41:54.271Z,17.30
2022-11-03T08:44:21.457Z,17.70
2022-11-03T08:46:48.541Z,17.40
2022-11-03T08:49:15.584Z,17.10
2022-11-03T08:51:44.682Z,16.80
2022-11-03T08:54:12.690Z,16.50
2022-11-03T08:56:40.218Z,16.70
2022-11-03T08:59:07.243Z,17.40
2022-11-03T09:01:34.657Z,16.90
2022-11-03T09:04:02.072Z,17.60
2022-11-03T09:06:29.475Z,17.70
2022-11-03T09:11:43.574Z,18.20
2022-11-03T09:14:11.110Z,18.20
2022-11-03T09:16:38.508Z,18.90
2022-11-03T09:19:05.766Z,18.90
2022-11-03T09:21:32.849Z,19.50
2022-11-03T09:24:00.271Z,19.80
2022-11-03T09:26:27.775Z,20.00
2022-11-03T09:28:54.932Z,19.90
2022-11-03T09:31:23.259Z,19.90
2022-11-03T09:33:50.310Z,20.40
2022-11-03T09:36:17.562Z,20.60
2022-11-03T09:38:44.763Z,21.10
2022-11-03T09:41:26.578Z,20.80
2022-11-03T09:44:02.910Z,21.10
2022-11-03T09:46:30.801Z,21.30
2022-11-03T09:48:59.280Z,20.90
2022-11-03T09:51:28.736Z,20.30
2022-11-03T09:54:05.164Z,20.10
2022-11-03T09:56:36.722Z,20.30
2022-11-03T09:59:18.502Z,20.10
2022-11-03T10:01:49.975Z,19.40
2022-11-03T10:04:28.194Z,19.10
2022-11-03T10:06:59.345Z,18.70
2022-11-03T10:09:29.653Z,18.60
2022-11-03T10:11:56.846Z,18.60
2022-11-03T10:14:24.567Z,18.90
2022-11-03T10:17:02.532Z,18.80
2022-11-03T10:19:31.886Z,19.10
2022-11-03T10:21:58.935Z,19.10
2022-11-03T10:24:26.170Z,19.60
2022-11-03T10:26:57.414Z,19.60
2022-11-03T10:29:27.306Z,19.50
2022-11-03T10:31:58.714Z,20.00
2022-11-03T10:34:37.420Z,20.70
2022-11-03T10:37:23.354Z,21.40
2022-11-03T10:39:54.233Z,21.10
2022-11-03T10:42:29.348Z,21.20
2022-11-03T10:45:22.108Z,21.10
2022-11-03T10:48:09.023Z,21.80
2022-11-03T10:50:39.995Z,21.40
2022-11-03T10:53:19.434Z,21.10
2022-11-03T10:55:47.110Z,20.80
2022-11-03T10:58:14.228Z,20.00
2022-11-03T11:00:43.097Z,20.40
2022-11-03T11:03:16.498Z,20.00
2022-11-03T11:05:48.892Z,20.30
2022-11-03T11:08:23.345Z,20.40
2022-11-03T11:10:50.690Z,20.40
2022-11-03T11:13:18.959Z,20.60
2022-11-03T11:15:53.039Z,20.50
2022-11-03T11:18:29.092Z,20.50
2022-11-03T11:21:24.846Z,20.70
2022-11-03T11:23:53.198Z,21.40
2022-11-03T11:26:37.217Z,21.70
2022-11-03T11:29:10.399Z,22.40
2022-11-03T11:31:42.421Z,22.70
2022-11-03T11:34:09.662Z,22.70
2022-11-03T11:36:42.588Z,22.30
2022-11-03T11:39:29.097Z,22.50
2022-11-03T11:42:22.110Z,22.30
2022-11-03T11:44:57.077Z,22.50
2022-11-03T11:47:24.236Z,22.30
2022-11-03T11:50:27.917Z,22.40
2022-11-03T11:53:12.536Z,22.10
2022-11-03T11:55:44.381Z,22.10
2022-11-03T11:58:22.722Z,22.30
2022-11-03T12:01:06.396Z,22.30
2022-11-03T12:03:44.427Z,22.20
2022-11-03T12:06:14.306Z,22.30
2022-11-03T12:08:42.766Z,22.10
2022-11-03T12:11:13.213Z,22.60
2022-11-03T12:13:55.087Z,22.90
2022-11-03T12:16:36.967Z,22.30
2022-11-03T12:19:44.980Z,22.40
2022-11-03T12:22:24.004Z,22.40
2022-11-03T12:24:56.688Z,22.60
2022-11-03T12:27:27.093Z,22.30
2022-11-03T12:29:57.391Z,21.90
2022-11-03T12:32:34.052Z,21.70
2022-11-03T12:35:08.580Z,21.70
2022-11-03T12:37:37.493Z,21.40
2022-11-03T12:40:06.204Z,21.20
2022-11-03T12:42:33.249Z,20.90
2022-11-03T12:45:00.337Z,21.00
2022-11-03T12:47:27.827Z,20.90
2022-11-03T12:49:55.138Z,20.90
2022-11-03T12:52:22.187Z,21.20
2022-11-03T12:54:49.264Z,21.40
2022-11-03T12:57:16.720Z,21.50
2022-11-03T12:59:43.922Z,21.60
2022-11-03T13:02:12.029Z,21.40
2022-11-03T13:04:39.198Z,21.80
2022-11-03T13:07:06.536Z,21.80
2022-11-03T13:09:35.796Z,21.40
2022-11-03T13:12:21.291Z,21.20
2022-11-03T13:14:48.771Z,20.90
2022-11-03T13:17:16.083Z,20.90
2022-11-03T13:19:43.148Z,20.50
2022-11-03T13:22:10.664Z,20.70
2022-11-03T13:24:37.975Z,20.80
2022-11-03T13:27:04.976Z,20.90
2022-11-03T13:29:35.462Z,20.80
2022-11-03T13:32:04.638Z,20.90
2022-11-03T13:34:32.013Z,20.60
2022-11-03T13:36:59.058Z,20.40
2022-11-03T13:39:26.611Z,20.60
2022-11-03T13:41:55.004Z,20.40
2022-11-03T13:44:22.104Z,20.50
2022-11-03T13:46:49.423Z,20.50
2022-11-03T13:49:59.175Z,20.50
2022-11-03T13:52:04.542Z,20.30
2022-11-03T14:00:09.213Z,19.70
2022-11-03T14:05:23.441Z,19.40
2022-11-03T14:07:50.852Z,18.90
2022-11-03T14:10:18.048Z,19.10
2022-11-03T14:12:45.316Z,18.30
2022-11-03T14:15:13.447Z,17.90
2022-11-03T14:17:41.246Z,17.70
2022-11-03T14:20:12.343Z,17.60
2022-11-03T14:22:40.725Z,17.70
2022-11-03T14:25:08.998Z,17.70
2022-11-03T14:27:36.292Z,17.60
2022-11-03T14:30:04.692Z,17.60
2022-11-03T14:32:31.743Z,17.50
2022-11-03T14:34:59.216Z,17.00
2022-11-03T14:37:27.040Z,17.20
2022-11-03T14:39:54.241Z,16.70
2022-11-03T14:42:21.458Z,16.90
2022-11-03T14:44:48.640Z,17.00
2022-11-03T14:47:21.851Z,17.10
2022-11-03T14:49:49.941Z,17.10
2022-11-03T14:52:17.962Z,16.90
2022-11-03T14:54:45.189Z,16.80
2022-11-03T14:57:12.378Z,16.60
2022-11-03T14:59:39.438Z,16.70
2022-11-03T15:02:07.353Z,17.00
2022-11-03T15:04:34.665Z,16.70
2022-11-03T15:07:01.946Z,16.90
2022-11-03T15:09:29.274Z,17.00
2022-11-03T15:11:56.739Z,17.10
2022-11-03T15:14:23.802Z,16.80
2022-11-03T15:16:50.918Z,16.70
2022-11-03T15:19:18.141Z,16.60
2022-11-03T15:21:45.353Z,16.90
2022-11-03T15:26:59.649Z,16.30
2022-11-03T15:29:26.765Z,16.20
2022-11-03T15:31:53.782Z,16.30
2022-11-03T15:34:20.952Z,15.80
2022-11-03T15:36:48.029Z,15.60
2022-11-03T15:39:16.081Z,15.60
2022-11-03T15:41:43.325Z,15.10
2022-11-03T15:44:10.646Z,15.20
2022-11-03T15:46:37.791Z,15.10
2022-11-03T15:49:04.887Z,15.20
2022-11-03T15:51:32.047Z,15.20
2022-11-03T15:53:59.539Z,15.20
2022-11-03T15:56:27.584Z,15.20
2022-11-03T15:58:55.055Z,15.30
2022-11-03T16:01:22.295Z,15.30
2022-11-03T16:03:49.725Z,15.10
2022-11-03T16:06:17.230Z,15.10
2022-11-03T16:08:45.143Z,14.90
2022-11-03T16:11:12.461Z,15.00
2022-11-03T16:13:39.614Z,14.90
2022-11-03T16:16:07.288Z,14.60
2022-11-03T16:18:35.110Z,14.80
2022-11-03T16:21:02.239Z,14.90
2022-11-03T16:23:29.348Z,14.40
2022-11-03T16:25:56.416Z,14.60
2022-11-03T16:28:23.902Z,14.50
2022-11-03T16:30:54.242Z,14.40
2022-11-03T16:33:22.820Z,14.40
2022-11-03T16:35:49.919Z,14.30
2022-11-03T16:38:17.124Z,14.30
2022-11-03T16:40:44.356Z,14.20
2022-11-03T16:43:12.223Z,14.40
2022-11-03T16:45:39.345Z,14.30
2022-11-03T16:48:07.550Z,14.20
2022-11-03T16:50:35.477Z,14.10
2022-11-03T16:53:03.116Z,13.90
2022-11-03T16:55:30.346Z,13.90
2022-11-03T16:57:58.030Z,14.00
2022-11-03T17:00:25.237Z,13.90
2022-11-03T17:02:55.047Z,13.70
2022-11-03T17:05:22.758Z,14.00
2022-11-03T17:07:53.644Z,14.00
2022-11-03T17:10:22.420Z,13.80
2022-11-03T17:12:50.756Z,14.10
2022-11-03T17:15:17.986Z,14.00
2022-11-03T17:17:45.255Z,13.90
2022-11-03T17:20:13.319Z,13.90
2022-11-03T17:22:40.832Z,13.70
2022-11-03T17:25:11.719Z,14.00
2022-11-03T17:27:48.591Z,13.90
2022-11-03T17:30:29.231Z,14.00
2022-11-03T17:33:14.365Z,13.70
2022-11-03T17:35:46.511Z,13.60
2022-11-03T17:38:17.817Z,13.70
2022-11-03T17:40:48.355Z,13.70
2022-11-03T17:43:22.639Z,13.70
2022-11-03T17:45:51.001Z,13.70
2022-11-03T17:48:18.589Z,13.70
2022-11-03T17:50:50.236Z,13.70
2022-11-03T17:53:27.291Z,13.60
2022-11-03T17:56:27.925Z,13.60
2022-11-03T17:58:46.992Z,13.40
2022-11-03T18:01:24.298Z,13.30
2022-11-03T18:03:52.283Z,13.30
2022-11-03T18:06:21.111Z,13.30
2022-11-03T18:08:49.726Z,13.40
2022-11-03T18:11:45.153Z,12.90
2022-11-03T18:14:12.913Z,13.30
2022-11-03T18:16:41.151Z,13.20
2022-11-03T18:19:15.110Z,13.10
2022-11-03T18:21:43.003Z,13.20
2022-11-03T18:24:17.707Z,13.40
2022-11-03T18:26:45.071Z,13.00
2022-11-03T18:29:12.633Z,13.30
2022-11-03T18:31:47.790Z,13.20
2022-11-03T18:34:23.163Z,13.60
2022-11-03T18:36:53.468Z,13.40
2022-11-03T18:39:28.489Z,13.40
2022-11-03T18:41:58.272Z,13.30
2022-11-03T18:44:31.274Z,13.30
2022-11-03T18:47:00.266Z,13.50
2022-11-03T18:49:28.261Z,13.30
2022-11-03T18:52:03.819Z,13.30
2022-11-03T18:54:35.387Z,13.30
2022-11-03T18:57:04.823Z,13.30
2022-11-03T18:59:44.463Z,13.30
2022-11-03T19:02:26.734Z,13.30
2022-11-03T19:04:57.327Z,13.20
2022-11-03T19:07:36.221Z,13.20
2022-11-03T19:10:15.934Z,13.20
2022-11-03T19:12:46.581Z,13.10
2022-11-03T19:15:25.489Z,13.20
2022-11-03T19:18:03.179Z,13.10
2022-11-03T19:20:31.497Z,12.80
2022-11-03T19:22:59.451Z,12.80
2022-11-03T19:25:28.805Z,13.10
2022-11-03T19:27:58.751Z,12.80
2022-11-03T19:30:27.176Z,12.80
2022-11-03T19:32:59.207Z,12.70
2022-11-03T19:35:33.536Z,12.80
2022-11-03T19:38:11.548Z,12.70
2022-11-03T19:41:01.171Z,12.70
2022-11-03T19:43:35.089Z,12.80
2022-11-03T19:46:04.880Z,12.80
2022-11-03T19:48:36.665Z,12.60
2022-11-03T19:51:07.490Z,12.60
2022-11-03T19:53:35.779Z,12.60
2022-11-03T19:56:10.041Z,12.60
2022-11-03T19:58:40.770Z,12.50
2022-11-03T20:01:09.822Z,12.70
2022-11-03T20:03:39.284Z,12.40
2022-11-03T20:06:08.736Z,12.30
2022-11-03T20:08:38.204Z,12.60
2022-11-03T20:11:07.332Z,12.60
2022-11-03T20:13:42.841Z,12.20
2022-11-03T20:16:16.736Z,12.40
2022-11-03T20:18:44.447Z,12.20
2022-11-03T20:21:17.304Z,12.50
2022-11-03T20:23:47.453Z,12.20
2022-11-03T20:26:22.345Z,12.30
2022-11-03T20:28:53.387Z,12.40
2022-11-03T20:31:21.528Z,12.40
2022-11-03T20:33:49.545Z,12.60
2022-11-03T20:36:20.495Z,12.30
2022-11-03T20:38:59.698Z,12.40
2022-11-03T20:41:29.866Z,12.40
2022-11-03T20:43:59.200Z,12.10
2022-11-03T20:46:33.706Z,12.10
2022-11-03T20:49:01.263Z,12.20
2022-11-03T20:51:52.043Z,12.30
2022-11-03T20:54:21.272Z,12.30
2022-11-03T20:56:48.529Z,12.30
2022-11-03T20:59:18.049Z,12.40
2022-11-03T21:01:45.985Z,12.30
2022-11-03T21:04:22.684Z,12.40
2022-11-03T21:06:49.749Z,12.40
2022-11-03T21:09:19.576Z,11.90
2022-11-03T21:11:47.913Z,12.30
2022-11-03T21:14:24.401Z,12.20
2022-11-03T21:17:10.349Z,12.20
2022-11-03T21:19:56.605Z,12.10
2022-11-03T21:25:23.614Z,12.20
2022-11-03T21:27:51.529Z,12.30
2022-11-03T21:30:19.742Z,12.30
2022-11-03T21:32:48.132Z,12.30
2022-11-03T21:35:19.432Z,12.20
2022-11-03T21:37:47.300Z,12.20
2022-11-03T21:40:14.960Z,12.00
2022-11-03T21:43:00.326Z,12.20
2022-11-03T21:45:27.820Z,11.80
2022-11-03T21:48:14.243Z,11.80
2022-11-03T21:50:43.385Z,12.10
2022-11-03T21:53:11.443Z,11.70
2022-11-03T21:55:39.517Z,11.80
2022-11-03T21:58:06.879Z,11.80
2022-11-03T22:00:34.203Z,12.00
2022-11-03T22:03:02.370Z,12.00
2022-11-03T22:05:29.804Z,11.90
2022-11-03T22:07:57.156Z,12.00
2022-11-03T22:10:24.313Z,12.10
2022-11-03T22:12:51.854Z,12.10
2022-11-03T22:15:37.588Z,12.10
2022-11-03T22:18:07.362Z,11.70
2022-11-03T22:21:03.379Z,11.80
2022-11-03T22:23:49.275Z,12.00
2022-11-03T22:26:35.586Z,12.00
2022-11-03T22:29:21.776Z,11.90
2022-11-03T22:31:49.118Z,11.70
2022-11-03T22:34:34.498Z,12.00
2022-11-03T22:37:01.573Z,12.10
2022-11-03T22:39:51.576Z,12.00
2022-11-03T22:42:37.512Z,12.00
2022-11-03T22:45:23.436Z,12.20
2022-11-03T22:47:57.253Z,11.90
2022-11-03T22:50:25.088Z,11.90
2022-11-03T22:52:52.143Z,12.20
2022-11-03T22:55:19.609Z,12.10
2022-11-03T22:57:46.999Z,11.90
2022-11-03T23:00:15.115Z,12.20
2022-11-03T23:02:42.458Z,12.10
2022-11-03T23:05:09.860Z,12.10
2022-11-03T23:07:41.277Z,12.10
2022-11-03T23:10:09.661Z,11.80
2022-11-03T23:12:38.608Z,12.10
2022-11-03T23:15:25.022Z,11.70
2022-11-03T23:18:10.281Z,12.00
2022-11-03T23:20:57.320Z,11.90
2022-11-03T23:23:43.387Z,12.10
2022-11-03T23:26:10.702Z,12.10
2022-11-03T23:28:37.975Z,12.10
2022-11-03T23:31:05.782Z,12.00
2022-11-03T23:33:34.001Z,12.20
2022-11-03T23:36:11.122Z,12.10
2022-11-03T23:38:39.307Z,12.30
2022-11-03T23:41:11.686Z,12.00
2022-11-03T23:43:39.694Z,12.10
2022-11-03T23:46:39.553Z,12.10
2022-11-03T23:49:07.683Z,12.10
2022-11-03T23:51:37.911Z,12.10
2022-11-03T23:54:08.377Z,12.00
2022-11-03T23:57:00.373Z,12.10
2022-11-03T23:59:30.556Z,11.90
